Time,TemperatureF,DewpointF,PressureIn,WindDirection,WindDirectionDegrees,WindSpeedMPH,WindSpeedGustMPH,Humidity,HourlyPrecipIn,Conditions,Clouds,dailyrainin,SolarRadiationWatts/m^2,SoftwareType,DateUTC
2013-01-25 00:01:00,11.0,-4.0,-100.00,NNE,19,0.0,3.0,50,0.00,,,0.00,0.000000,,2013-01-25 05:01:00,
2013-01-25 00:32:00,11.0,-4.0,-100.00,NNE,19,0.0,3.0,50,0.00,,,0.00,0.000000,,2013-01-25 05:32:00,
2013-01-25 00:43:00,11.0,-4.0,-100.00,NNE,19,0.0,3.0,50,0.00,,,0.00,0.000000,,2013-01-25 05:43:00,
2013-01-25 00:52:00,11.0,-4.0,-100.00,NNE,19,0.0,3.0,50,0.00,,,0.00,0.000000,,2013-01-25 05:52:00,
2013-01-25 01:01:00,11.0,-3.0,-100.00,North,351,1.0,4.0,53,0.00,,,0.00,0.000000,,2013-01-25 06:01:00,
2013-01-25 01:32:00,11.0,-3.0,-100.00,North,351,1.0,4.0,53,0.00,,,0.00,0.000000,,2013-01-25 06:32:00,
2013-01-25 01:42:00,11.0,-3.0,-100.00,North,351,1.0,4.0,53,0.00,,,0.00,0.000000,,2013-01-25 06:42:00,
2013-01-25 01:52:00,11.0,-3.0,-100.00,North,351,1.0,4.0,53,0.00,,,0.00,0.000000,,2013-01-25 06:52:00,
2013-01-25 02:01:00,11.0,0.0,-100.00,SW,216,1.0,2.0,59,0.00,,,0.00,0.000000,,2013-01-25 07:01:00,
2013-01-25 02:32:00,11.0,0.0,-100.00,SW,216,1.0,2.0,59,0.00,,,0.00,0.000000,,2013-01-25 07:32:00,
2013-01-25 02:42:00,11.0,0.0,-100.00,SW,216,1.0,2.0,59,0.00,,,0.00,0.000000,,2013-01-25 07:42:00,
2013-01-25 02:52:00,11.0,0.0,-100.00,SW,216,1.0,2.0,59,0.00,,,0.00,0.000000,,2013-01-25 07:52:00,
2013-01-25 03:01:00,10.0,-1.0,-100.00,SSW,205,1.0,3.0,61,0.00,,,0.00,0.000000,,2013-01-25 08:01:00,
2013-01-25 03:22:00,10.0,-1.0,-100.00,SSW,205,1.0,3.0,61,0.00,,,0.00,0.000000,,2013-01-25 08:22:00,
2013-01-25 03:32:00,10.0,-1.0,-100.00,SSW,205,1.0,3.0,61,0.00,,,0.00,0.000000,,2013-01-25 08:32:00,
2013-01-25 03:42:00,10.0,-1.0,-100.00,SSW,205,1.0,3.0,61,0.00,,,0.00,0.000000,,2013-01-25 08:42:00,
2013-01-25 03:52:00,10.0,-1.0,-100.00,SSW,205,1.0,3.0,61,0.00,,,0.00,0.000000,,2013-01-25 08:52:00,
2013-01-25 04:01:00,10.0,0.0,-100.00,NE,48,0.0,2.0,63,0.00,,,0.00,0.000000,,2013-01-25 09:01:00,
2013-01-25 04:32:00,10.0,0.0,-100.00,NE,48,0.0,2.0,63,0.00,,,0.00,0.000000,,2013-01-25 09:32:00,
2013-01-25 04:42:00,10.0,0.0,-100.00,NE,48,0.0,2.0,63,0.00,,,0.00,0.000000,,2013-01-25 09:42:00,
2013-01-25 04:52:00,10.0,0.0,-100.00,NE,48,0.0,2.0,63,0.00,,,0.00,0.000000,,2013-01-25 09:52:00,
2013-01-25 05:01:00,11.0,1.0,-100.00,WSW,248,1.0,2.0,63,0.00,,,0.00,0.000000,,2013-01-25 10:01:00,
2013-01-25 05:22:00,11.0,1.0,-100.00,WSW,248,1.0,2.0,63,0.00,,,0.00,0.000000,,2013-01-25 10:22:00,
2013-01-25 05:32:00,11.0,1.0,-100.00,WSW,248,1.0,2.0,63,0.00,,,0.00,0.000000,,2013-01-25 10:32:00,
2013-01-25 05:42:00,11.0,1.0,-100.00,WSW,248,1.0,2.0,63,0.00,,,0.00,0.000000,,2013-01-25 10:42:00,
2013-01-25 05:52:00,11.0,1.0,-100.00,WSW,248,1.0,2.0,63,0.00,,,0.00,0.000000,,2013-01-25 10:52:00,
2013-01-25 06:01:00,11.0,0.0,-100.00,North,2,0.0,0.0,59,0.00,,,0.00,0.000000,,2013-01-25 11:01:00,
2013-01-25 06:22:00,11.0,0.0,-100.00,North,2,0.0,0.0,59,0.00,,,0.00,0.000000,,2013-01-25 11:22:00,
2013-01-25 06:33:00,11.0,0.0,-100.00,North,2,0.0,0.0,59,0.00,,,0.00,0.000000,,2013-01-25 11:33:00,
2013-01-25 06:42:00,11.0,0.0,-100.00,North,2,0.0,0.0,59,0.00,,,0.00,0.000000,,2013-01-25 11:42:00,
2013-01-25 06:52:00,11.0,0.0,-100.00,North,2,0.0,0.0,59,0.00,,,0.00,0.000000,,2013-01-25 11:52:00,
2013-01-25 07:01:00,11.0,1.0,-100.00,South,187,2.0,4.0,62,0.00,,,0.00,0.000000,,2013-01-25 12:01:00,
2013-01-25 07:22:00,11.0,1.0,-100.00,South,187,2.0,4.0,62,0.00,,,0.00,0.000000,,2013-01-25 12:22:00,
2013-01-25 07:33:00,11.0,1.0,-100.00,South,187,2.0,4.0,62,0.00,,,0.00,0.000000,,2013-01-25 12:33:00,
2013-01-25 07:42:00,11.0,1.0,-100.00,South,187,2.0,4.0,62,0.00,,,0.00,0.000000,,2013-01-25 12:42:00,
2013-01-25 07:53:00,11.0,1.0,-100.00,South,187,2.0,4.0,62,0.00,,,0.00,0.000000,,2013-01-25 12:53:00,
2013-01-25 08:01:00,11.0,2.0,-100.00,South,189,2.0,4.0,65,0.00,,,0.00,0.000000,,2013-01-25 13:01:00,
2013-01-25 08:33:00,11.0,2.0,-100.00,South,189,2.0,4.0,65,0.00,,,0.00,0.000000,,2013-01-25 13:33:00,
2013-01-25 08:43:00,11.0,2.0,-100.00,South,189,2.0,4.0,65,0.00,,,0.00,0.000000,,2013-01-25 13:43:00,
2013-01-25 08:53:00,11.0,2.0,-100.00,South,189,2.0,4.0,65,0.00,,,0.00,0.000000,,2013-01-25 13:53:00,
2013-01-25 09:01:00,14.0,2.0,-100.00,SW,218,5.0,10.0,58,0.00,,,0.00,0.000000,,2013-01-25 14:01:00,
2013-01-25 09:33:00,14.0,2.0,-100.00,SW,218,5.0,10.0,58,0.00,,,0.00,0.000000,,2013-01-25 14:33:00,
2013-01-25 09:42:00,14.0,2.0,-100.00,SW,218,5.0,10.0,58,0.00,,,0.00,0.000000,,2013-01-25 14:42:00,
2013-01-25 09:53:00,14.0,2.0,-100.00,SW,218,5.0,10.0,58,0.00,,,0.00,0.000000,,2013-01-25 14:53:00,
2013-01-25 10:01:00,16.0,2.0,-100.00,SSW,213,4.0,10.0,53,0.00,,,0.00,0.000000,,2013-01-25 15:01:00,
2013-01-25 10:33:00,16.0,2.0,-100.00,SSW,213,4.0,10.0,53,0.00,,,0.00,0.000000,,2013-01-25 15:33:00,
2013-01-25 10:43:00,16.0,2.0,-100.00,SSW,213,4.0,10.0,53,0.00,,,0.00,0.000000,,2013-01-25 15:43:00,
2013-01-25 10:53:00,16.0,2.0,-100.00,SSW,213,4.0,10.0,53,0.00,,,0.00,0.000000,,2013-01-25 15:53:00,
2013-01-25 11:01:00,18.0,2.0,-100.00,SSW,213,7.0,13.0,49,0.00,,,0.00,0.000000,,2013-01-25 16:01:00,
2013-01-25 11:33:00,18.0,2.0,-100.00,SSW,213,7.0,13.0,49,0.00,,,0.00,0.000000,,2013-01-25 16:33:00,
2013-01-25 11:43:00,18.0,2.0,-100.00,SSW,213,7.0,13.0,49,0.00,,,0.00,0.000000,,2013-01-25 16:43:00,
2013-01-25 11:53:00,18.0,2.0,-100.00,SSW,213,7.0,13.0,49,0.00,,,0.00,0.000000,,2013-01-25 16:53:00,
2013-01-25 12:01:00,18.0,1.0,-100.00,SSW,206,8.0,21.0,47,0.00,,,0.00,0.000000,,2013-01-25 17:01:00,
2013-01-25 12:33:00,18.0,1.0,-100.00,SSW,206,8.0,21.0,47,0.00,,,0.00,0.000000,,2013-01-25 17:33:00,
2013-01-25 12:43:00,18.0,1.0,-100.00,SSW,206,8.0,21.0,47,0.00,,,0.00,0.000000,,2013-01-25 17:43:00,
2013-01-25 12:53:00,18.0,1.0,-100.00,SSW,206,8.0,21.0,47,0.00,,,0.00,0.000000,,2013-01-25 17:53:00,
2013-01-25 13:01:00,16.0,10.0,-100.00,SSW,207,6.0,16.0,76,0.00,,,0.00,0.000000,,2013-01-25 18:01:00,
2013-01-25 13:33:00,16.0,10.0,-100.00,SSW,207,6.0,16.0,76,0.00,,,0.00,0.000000,,2013-01-25 18:33:00,
2013-01-25 13:43:00,16.0,10.0,-100.00,SSW,207,6.0,16.0,76,0.00,,,0.00,0.000000,,2013-01-25 18:43:00,
2013-01-25 13:53:00,16.0,10.0,-100.00,SSW,207,6.0,16.0,76,0.00,,,0.00,0.000000,,2013-01-25 18:53:00,
2013-01-25 14:01:00,17.0,12.0,-100.00,SSW,212,5.0,11.0,80,0.00,,,0.00,0.000000,,2013-01-25 19:01:00,
2013-01-25 14:33:00,17.0,12.0,-100.00,SSW,212,5.0,11.0,80,0.00,,,0.00,0.000000,,2013-01-25 19:33:00,
2013-01-25 14:42:00,17.0,12.0,-100.00,SSW,212,5.0,11.0,80,0.00,,,0.00,0.000000,,2013-01-25 19:42:00,
2013-01-25 14:53:00,17.0,12.0,-100.00,SSW,212,5.0,11.0,80,0.00,,,0.00,0.000000,,2013-01-25 19:53:00,
2013-01-25 15:01:00,17.0,11.0,-100.00,SSW,208,5.0,11.0,77,0.00,,,0.00,0.000000,,2013-01-25 20:01:00,
2013-01-25 15:33:00,17.0,11.0,-100.00,SSW,208,5.0,11.0,77,0.00,,,0.00,0.000000,,2013-01-25 20:33:00,
2013-01-25 15:43:00,17.0,11.0,-100.00,SSW,208,5.0,11.0,77,0.00,,,0.00,0.000000,,2013-01-25 20:43:00,
2013-01-25 15:53:00,17.0,11.0,-100.00,SSW,208,5.0,11.0,77,0.00,,,0.00,0.000000,,2013-01-25 20:53:00,
2013-01-25 16:01:00,18.0,13.0,-100.00,SSW,212,3.0,10.0,79,0.00,,,0.00,0.000000,,2013-01-25 21:01:00,
2013-01-25 16:33:00,18.0,13.0,-100.00,SSW,212,3.0,10.0,79,0.00,,,0.00,0.000000,,2013-01-25 21:33:00,
2013-01-25 16:43:00,18.0,13.0,-100.00,SSW,212,3.0,10.0,79,0.00,,,0.00,0.000000,,2013-01-25 21:43:00,
2013-01-25 16:52:00,18.0,13.0,-100.00,SSW,212,3.0,10.0,79,0.00,,,0.00,0.000000,,2013-01-25 21:52:00,
2013-01-25 17:01:00,17.0,12.0,-100.00,SW,216,3.0,8.0,81,0.00,,,0.00,0.000000,,2013-01-25 22:01:00,
2013-01-25 17:33:00,17.0,12.0,-100.00,SW,216,3.0,8.0,81,0.00,,,0.00,0.000000,,2013-01-25 22:33:00,
2013-01-25 17:42:00,17.0,12.0,-100.00,SW,216,3.0,8.0,81,0.00,,,0.00,0.000000,,2013-01-25 22:42:00,
2013-01-25 17:53:00,17.0,12.0,-100.00,SW,216,3.0,8.0,81,0.00,,,0.00,0.000000,,2013-01-25 22:53:00,
2013-01-25 18:01:00,17.0,13.0,-100.00,SW,214,3.0,6.0,83,0.00,,,0.00,0.000000,,2013-01-25 23:01:00,
2013-01-25 18:32:00,17.0,13.0,-100.00,SW,214,3.0,6.0,83,0.00,,,0.00,0.000000,,2013-01-25 23:32:00,
2013-01-25 18:42:00,17.0,13.0,-100.00,SW,214,3.0,6.0,83,0.00,,,0.00,0.000000,,2013-01-25 23:42:00,
2013-01-25 18:53:00,17.0,13.0,-100.00,SW,214,3.0,6.0,83,0.00,,,0.00,0.000000,,2013-01-25 23:53:00,
2013-01-25 19:01:00,18.0,14.0,-100.00,SSW,192,1.0,5.0,84,0.00,,,0.00,0.000000,,2013-01-26 00:01:00,
2013-01-25 19:33:00,18.0,14.0,-100.00,SSW,192,1.0,5.0,84,0.00,,,0.00,0.000000,,2013-01-26 00:33:00,
2013-01-25 19:42:00,18.0,14.0,-100.00,SSW,192,1.0,5.0,84,0.00,,,0.00,0.000000,,2013-01-26 00:42:00,
2013-01-25 19:53:00,18.0,14.0,-100.00,SSW,192,1.0,5.0,84,0.00,,,0.00,0.000000,,2013-01-26 00:53:00,
2013-01-25 20:01:00,19.0,15.0,-100.00,West,261,3.0,9.0,85,0.00,,,0.00,0.000000,,2013-01-26 01:01:00,
2013-01-25 20:32:00,19.0,15.0,-100.00,West,261,3.0,9.0,85,0.00,,,0.00,0.000000,,2013-01-26 01:32:00,
2013-01-25 20:42:00,19.0,15.0,-100.00,West,261,3.0,9.0,85,0.00,,,0.00,0.000000,,2013-01-26 01:42:00,
2013-01-25 20:52:00,19.0,15.0,-100.00,West,261,3.0,9.0,85,0.00,,,0.00,0.000000,,2013-01-26 01:52:00,
2013-01-25 21:01:00,26.0,21.0,-100.00,WNW,295,6.0,17.0,80,0.00,,,0.00,0.000000,,2013-01-26 02:01:00,
2013-01-25 21:32:00,26.0,21.0,-100.00,WNW,295,6.0,17.0,80,0.00,,,0.00,0.000000,,2013-01-26 02:32:00,
2013-01-25 21:42:00,26.0,21.0,-100.00,WNW,295,6.0,17.0,80,0.00,,,0.00,0.000000,,2013-01-26 02:42:00,
2013-01-25 21:52:00,26.0,21.0,-100.00,WNW,295,6.0,17.0,80,0.00,,,0.00,0.000000,,2013-01-26 02:52:00,
2013-01-25 22:01:00,27.0,22.0,-100.00,WNW,291,7.0,24.0,80,0.00,,,0.00,0.000000,,2013-01-26 03:01:00,
2013-01-25 22:32:00,27.0,22.0,-100.00,WNW,291,7.0,24.0,80,0.00,,,0.00,0.000000,,2013-01-26 03:32:00,
2013-01-25 22:43:00,27.0,22.0,-100.00,WNW,291,7.0,24.0,80,0.00,,,0.00,0.000000,,2013-01-26 03:43:00,
2013-01-25 22:52:00,27.0,22.0,-100.00,WNW,291,7.0,24.0,80,0.00,,,0.00,0.000000,,2013-01-26 03:52:00,
2013-01-25 23:01:00,28.0,22.0,-100.00,WNW,291,8.0,17.0,79,0.00,,,0.00,0.000000,,2013-01-26 04:01:00,
2013-01-25 23:32:00,28.0,22.0,-100.00,WNW,291,8.0,17.0,79,0.00,,,0.00,0.000000,,2013-01-26 04:32:00,
2013-01-25 23:43:00,28.0,22.0,-100.00,WNW,291,8.0,17.0,79,0.00,,,0.00,0.000000,,2013-01-26 04:43:00,
2013-01-25 23:52:00,28.0,22.0,-100.00,WNW,291,8.0,17.0,79,0.00,,,0.00,0.000000,,2013-01-26 04:52:00,